Time;durP1;ratioP1;P1;durP2;ratioP2;P2;SDS_P1;SDS_P2;PMS_P1;PMS_P2;Temp;Humidity;BMP_temperature;BMP_pressure;BME280_temperature;BME280_humidity;BME280_pressure;Samples;Min_cycle;Max_cycle;Signal;HPM_P1;HPM_P2
2021/07/29 00:02:24;;;;;;;6.05;2.10;;;;;;;;;;4671212;30;20041;-80
2021/07/29 00:04:51;;;;;;;3.97;1.95;;;;;;;;;;4671023;30;22093;-79
2021/07/29 00:07:16;;;;;;;5.43;2.10;;;;;;;;;;4686272;30;20038;-79
2021/07/29 00:09:45;;;;;;;5.53;2.00;;;;;;;;;;4681572;30;20779;-79
2021/07/29 00:12:10;;;;;;;3.80;1.92;;;;;;;;;;4668356;30;20046;-79
2021/07/29 00:14:36;;;;;;;6.88;2.38;;;;;;;;;;4682536;30;20059;-80
2021/07/29 00:17:03;;;;;;;4.22;2.05;;;;;;;;;;4674528;30;20121;-79
2021/07/29 00:19:29;;;;;;;5.28;1.80;;;;;;;;;;4684282;30;20045;-80
2021/07/29 00:21:54;;;;;;;4.30;1.85;;;;;;;;;;4662333;30;20041;-80
2021/07/29 00:24:19;;;;;;;4.63;2.00;;;;;;;;;;4668065;30;20038;-80
2021/07/29 00:26:45;;;;;;;6.10;1.90;;;;;;;;;;4682427;30;20500;-80
2021/07/29 00:29:10;;;;;;;7.30;1.95;;;;;;;;;;4661373;30;20058;-80
2021/07/29 00:31:36;;;;;;;9.73;2.30;;;;;;;;;;4686675;30;20419;-80
2021/07/29 00:34:03;;;;;;;7.15;1.90;;;;;;;;;;4686214;30;20046;-80
2021/07/29 00:36:28;;;;;;;6.68;1.75;;;;;;;;;;4683803;30;20036;-80
2021/07/29 00:38:55;;;;;;;7.78;1.80;;;;;;;;;;4671910;30;20033;-80
2021/07/29 00:41:20;;;;;;;5.30;1.77;;;;;;;;;;4671410;30;20046;-80
2021/07/29 00:43:46;;;;;;;4.70;1.75;;;;;;;;;;4672073;30;20046;-80
2021/07/29 00:46:13;;;;;;;6.53;1.80;;;;;;;;;;4686146;30;20562;-80
2021/07/29 00:48:39;;;;;;;6.43;1.88;;;;;;;;;;4670220;30;20049;-80
2021/07/29 00:51:05;;;;;;;5.45;1.63;;;;;;;;;;4670807;30;20038;-80
2021/07/29 00:53:31;;;;;;;3.60;1.70;;;;;;;;;;4661136;30;20048;-80
2021/07/29 00:55:57;;;;;;;7.63;1.70;;;;;;;;;;4667206;30;20674;-80
2021/07/29 00:58:22;;;;;;;5.68;2.17;;;;;;;;;;4668175;30;20061;-80
2021/07/29 01:00:48;;;;;;;7.38;1.88;;;;;;;;;;4671281;30;20108;-80
2021/07/29 01:03:14;;;;;;;7.18;1.70;;;;;;;;;;4672289;30;20103;-80
2021/07/29 01:05:41;;;;;;;5.53;1.70;;;;;;;;;;4673076;30;20103;-80
2021/07/29 01:08:06;;;;;;;5.03;1.70;;;;;;;;;;4671241;30;20057;-79
2021/07/29 01:10:34;;;;;;;5.35;1.60;;;;;;;;;;4691982;30;20037;-80
2021/07/29 01:12:59;;;;;;;5.72;1.60;;;;;;;;;;4671047;30;20085;-80
2021/07/29 01:15:25;;;;;;;6.55;1.63;;;;;;;;;;4688904;30;20114;-80
2021/07/29 01:17:50;;;;;;;5.78;1.45;;;;;;;;;;4690997;30;20187;-80
2021/07/29 01:20:18;;;;;;;5.82;1.65;;;;;;;;;;4667697;30;20119;-79
2021/07/29 01:22:43;;;;;;;7.93;1.70;;;;;;;;;;4689717;30;20049;-80
2021/07/29 01:25:10;;;;;;;5.35;1.60;;;;;;;;;;4672883;30;20097;-80
2021/07/29 01:27:37;;;;;;;5.28;1.50;;;;;;;;;;4668827;30;20404;-80
2021/07/29 01:30:03;;;;;;;5.63;1.80;;;;;;;;;;4670086;30;20056;-80
2021/07/29 01:32:29;;;;;;;5.85;1.50;;;;;;;;;;4676421;30;20077;-79
2021/07/29 01:34:56;;;;;;;8.27;1.90;;;;;;;;;;4686589;30;20409;-80
2021/07/29 01:37:21;;;;;;;3.25;1.40;;;;;;;;;;4672233;30;20046;-80
2021/07/29 01:39:47;;;;;;;6.25;1.50;;;;;;;;;;4689769;30;20119;-80
2021/07/29 01:42:12;;;;;;;6.70;2.10;;;;;;;;;;4671150;30;20083;-80
2021/07/29 01:44:37;;;;;;;4.38;1.90;;;;;;;;;;4672352;30;20443;-80
2021/07/29 01:47:03;;;;;;;5.95;1.58;;;;;;;;;;4673600;30;20157;-80
2021/07/29 01:49:29;;;;;;;5.85;1.90;;;;;;;;;;4673039;30;20048;-80
2021/07/29 01:51:54;;;;;;;6.25;1.77;;;;;;;;;;4689949;30;20107;-80
2021/07/29 01:54:19;;;;;;;6.15;1.73;;;;;;;;;;4662681;30;20119;-80
2021/07/29 01:56:45;;;;;;;7.53;1.67;;;;;;;;;;4672500;30;20045;-80
2021/07/29 01:59:10;;;;;;;6.40;1.90;;;;;;;;;;4670833;30;20041;-80
2021/07/29 02:01:37;;;;;;;5.30;1.50;;;;;;;;;;4673333;30;20046;-79
2021/07/29 02:04:03;;;;;;;8.52;1.92;;;;;;;;;;4672198;30;20504;-80
2021/07/29 02:06:29;;;;;;;4.93;1.65;;;;;;;;;;4688456;30;20062;-79
2021/07/29 02:08:54;;;;;;;7.78;1.80;;;;;;;;;;4668499;30;20045;-79
2021/07/29 02:11:19;;;;;;;7.15;2.20;;;;;;;;;;4681162;30;20080;-79
2021/07/29 02:13:45;;;;;;;5.85;1.92;;;;;;;;;;4672429;30;20049;-80
2021/07/29 02:16:11;;;;;;;6.88;2.00;;;;;;;;;;4687502;30;20163;-80
2021/07/29 02:18:37;;;;;;;5.35;1.80;;;;;;;;;;4672343;30;21933;-80
2021/07/29 02:21:02;;;;;;;6.03;1.70;;;;;;;;;;4687703;30;20033;-80
2021/07/29 02:23:28;;;;;;;5.93;1.67;;;;;;;;;;4687059;30;20034;-80
2021/07/29 02:25:53;;;;;;;6.75;2.17;;;;;;;;;;4671598;30;20089;-80
2021/07/29 02:28:19;;;;;;;7.38;2.10;;;;;;;;;;4684101;30;20048;-80
2021/07/29 02:30:44;;;;;;;5.35;1.80;;;;;;;;;;4673159;30;20053;-79
2021/07/29 02:33:09;;;;;;;6.78;2.05;;;;;;;;;;4669596;30;20046;-80
2021/07/29 02:35:35;;;;;;;8.48;1.90;;;;;;;;;;4688664;30;20044;-80
2021/07/29 02:38:00;;;;;;;6.30;1.65;;;;;;;;;;4690324;30;20391;-80
2021/07/29 02:40:26;;;;;;;5.35;1.83;;;;;;;;;;4665469;30;21813;-79
2021/07/29 02:42:51;;;;;;;5.75;1.50;;;;;;;;;;4661869;30;20407;-80
2021/07/29 02:45:17;;;;;;;8.10;1.80;;;;;;;;;;4669402;30;20148;-79
2021/07/29 02:47:42;;;;;;;8.18;1.88;;;;;;;;;;4685224;30;20038;-80
2021/07/29 02:50:08;;;;;;;7.95;1.83;;;;;;;;;;4683035;30;20041;-80
2021/07/29 02:52:34;;;;;;;5.32;1.70;;;;;;;;;;4671138;30;20117;-80
2021/07/29 02:54:59;;;;;;;5.95;2.03;;;;;;;;;;4670857;30;20089;-80
2021/07/29 02:57:24;;;;;;;7.53;2.05;;;;;;;;;;4673294;30;20066;-80
2021/07/29 02:59:50;;;;;;;5.57;1.90;;;;;;;;;;4686056;30;20050;-80
2021/07/29 03:02:15;;;;;;;8.80;2.17;;;;;;;;;;4667239;30;20030;-80
2021/07/29 03:04:40;;;;;;;6.63;1.90;;;;;;;;;;4674498;30;20494;-80
2021/07/29 03:07:06;;;;;;;6.35;2.00;;;;;;;;;;4660974;30;20124;-80
2021/07/29 03:09:32;;;;;;;6.30;1.67;;;;;;;;;;4650124;30;20124;-79
2021/07/29 03:11:58;;;;;;;9.43;1.95;;;;;;;;;;4649906;30;20056;-79
2021/07/29 03:14:24;;;;;;;5.72;1.90;;;;;;;;;;4684866;30;20042;-79
2021/07/29 03:16:49;;;;;;;5.72;1.92;;;;;;;;;;4664979;30;20046;-79
2021/07/29 03:19:15;;;;;;;6.57;2.33;;;;;;;;;;4687761;30;20044;-79
2021/07/29 03:21:40;;;;;;;7.63;2.00;;;;;;;;;;4663332;30;20048;-80
2021/07/29 03:24:06;;;;;;;6.15;1.90;;;;;;;;;;4686903;30;20080;-79
2021/07/29 03:26:31;;;;;;;7.60;2.00;;;;;;;;;;4686357;30;20128;-80
2021/07/29 03:28:56;;;;;;;9.73;1.92;;;;;;;;;;4666198;30;20049;-80
2021/07/29 03:31:22;;;;;;;6.70;2.10;;;;;;;;;;4669032;30;20074;-80
2021/07/29 03:33:47;;;;;;;6.03;1.80;;;;;;;;;;4670910;30;20046;-80
2021/07/29 03:36:12;;;;;;;9.05;2.13;;;;;;;;;;4672366;30;20128;-80
2021/07/29 03:38:38;;;;;;;7.53;2.10;;;;;;;;;;4663081;30;20101;-80
2021/07/29 03:41:11;;;;;;;8.82;2.13;;;;;;;;;;4668374;30;20040;-80
2021/07/29 03:43:36;;;;;;;7.05;1.77;;;;;;;;;;4686234;30;20052;-80
2021/07/29 03:46:02;;;;;;;8.55;1.90;;;;;;;;;;4663470;30;20050;-80
2021/07/29 03:48:27;;;;;;;7.32;2.00;;;;;;;;;;4686670;30;20117;-80
2021/07/29 03:50:53;;;;;;;10.02;2.42;;;;;;;;;;4659180;30;20097;-80
2021/07/29 03:53:18;;;;;;;7.13;1.90;;;;;;;;;;4670535;30;20078;-80
2021/07/29 03:55:44;;;;;;;8.38;2.60;;;;;;;;;;4669603;30;20476;-80
2021/07/29 03:58:10;;;;;;;9.00;2.63;;;;;;;;;;4684291;30;20688;-79
2021/07/29 04:00:35;;;;;;;9.20;1.80;;;;;;;;;;4661298;30;20038;-79
2021/07/29 04:03:01;;;;;;;7.90;2.28;;;;;;;;;;4670139;30;20038;-80
2021/07/29 04:05:26;;;;;;;7.43;1.90;;;;;;;;;;4661151;30;20049;-80
2021/07/29 04:07:52;;;;;;;7.03;2.10;;;;;;;;;;4669083;30;21212;-79
2021/07/29 04:10:17;;;;;;;7.20;2.40;;;;;;;;;;4662285;30;20041;-80
2021/07/29 04:12:42;;;;;;;5.72;1.90;;;;;;;;;;4661247;30;20037;-79
2021/07/29 04:15:08;;;;;;;7.13;1.90;;;;;;;;;;4662666;30;20387;-80
2021/07/29 04:17:34;;;;;;;8.40;2.10;;;;;;;;;;4661895;30;20060;-80
2021/07/29 04:19:59;;;;;;;6.30;2.10;;;;;;;;;;4669012;30;20292;-79
2021/07/29 04:22:26;;;;;;;7.65;2.15;;;;;;;;;;4671246;30;20037;-79
2021/07/29 04:24:55;;;;;;;9.63;2.03;;;;;;;;;;4660251;30;20046;-80
2021/07/29 04:27:21;;;;;;;9.32;2.20;;;;;;;;;;4669779;30;20056;-79
2021/07/29 04:29:47;;;;;;;8.55;1.80;;;;;;;;;;4668408;30;22547;-80
2021/07/29 04:32:13;;;;;;;5.80;1.75;;;;;;;;;;4675957;30;20068;-80
2021/07/29 04:34:39;;;;;;;6.95;2.03;;;;;;;;;;4669378;30;20049;-80
2021/07/29 04:37:05;;;;;;;10.80;2.70;;;;;;;;;;4688155;30;20692;-79
2021/07/29 04:39:30;;;;;;;6.75;2.00;;;;;;;;;;4674284;30;20103;-80
2021/07/29 04:41:56;;;;;;;9.85;2.10;;;;;;;;;;4673593;30;20041;-79
2021/07/29 04:44:21;;;;;;;9.30;2.58;;;;;;;;;;4684816;30;20045;-79
2021/07/29 04:46:47;;;;;;;11.93;2.28;;;;;;;;;;4672941;30;20091;-80
2021/07/29 04:49:12;;;;;;;9.32;2.15;;;;;;;;;;4684998;30;20155;-80
2021/07/29 04:51:39;;;;;;;7.97;2.13;;;;;;;;;;4670022;30;20033;-80
2021/07/29 04:54:05;;;;;;;10.38;2.30;;;;;;;;;;4686684;30;20063;-80
2021/07/29 04:56:32;;;;;;;10.40;2.50;;;;;;;;;;4690989;30;20054;-80
2021/07/29 04:58:57;;;;;;;7.50;1.83;;;;;;;;;;4685786;30;20041;-80
2021/07/29 05:01:23;;;;;;;6.18;1.85;;;;;;;;;;4675192;30;20072;-80
2021/07/29 05:03:48;;;;;;;6.80;2.70;;;;;;;;;;4686908;30;20456;-80
2021/07/29 05:06:14;;;;;;;9.02;2.25;;;;;;;;;;4692485;30;20037;-80
2021/07/29 05:08:43;;;;;;;6.82;2.30;;;;;;;;;;4671896;30;20041;-80
2021/07/29 05:11:09;;;;;;;7.50;1.83;;;;;;;;;;4689374;30;20041;-80
2021/07/29 05:13:38;;;;;;;11.02;2.17;;;;;;;;;;4691382;30;20406;-80
2021/07/29 05:16:05;;;;;;;8.07;2.13;;;;;;;;;;4670309;30;20065;-80
2021/07/29 05:18:31;;;;;;;12.27;2.20;;;;;;;;;;4672280;30;20046;-80
2021/07/29 05:21:04;;;;;;;6.78;2.13;;;;;;;;;;4691037;30;20045;-80
2021/07/29 05:23:30;;;;;;;10.25;2.20;;;;;;;;;;4662407;30;20041;-80
2021/07/29 05:25:56;;;;;;;5.50;2.08;;;;;;;;;;4686742;30;20042;-80
2021/07/29 05:28:21;;;;;;;6.70;1.90;;;;;;;;;;4685144;30;20061;-79
2021/07/29 05:30:47;;;;;;;10.05;2.20;;;;;;;;;;4671416;30;20424;-80
2021/07/29 05:33:12;;;;;;;8.85;2.15;;;;;;;;;;4688874;30;20047;-80
2021/07/29 05:35:37;;;;;;;7.57;2.22;;;;;;;;;;4675941;30;20077;-80
2021/07/29 05:38:03;;;;;;;9.45;2.20;;;;;;;;;;4667137;30;20042;-80
2021/07/29 05:40:28;;;;;;;10.70;2.90;;;;;;;;;;4673067;30;20121;-80
2021/07/29 05:42:54;;;;;;;8.23;2.20;;;;;;;;;;4689812;30;20504;-80
2021/07/29 05:45:20;;;;;;;7.65;2.60;;;;;;;;;;4659952;30;20132;-80
2021/07/29 05:47:45;;;;;;;11.25;3.28;;;;;;;;;;4660587;30;20049;-79
2021/07/29 05:50:10;;;;;;;9.65;3.05;;;;;;;;;;4672307;30;20041;-80
2021/07/29 05:52:36;;;;;;;11.52;2.55;;;;;;;;;;4660971;30;21139;-80
2021/07/29 05:55:03;;;;;;;11.05;2.83;;;;;;;;;;4667851;30;20567;-80
2021/07/29 05:57:28;;;;;;;10.15;2.42;;;;;;;;;;4679956;30;21130;-80
2021/07/29 05:59:54;;;;;;;11.77;3.13;;;;;;;;;;4660859;30;20045;-80
2021/07/29 06:02:19;;;;;;;11.35;2.70;;;;;;;;;;4659990;30;20388;-79
2021/07/29 06:04:45;;;;;;;7.10;2.60;;;;;;;;;;4666922;30;20492;-80
2021/07/29 06:07:10;;;;;;;7.28;2.63;;;;;;;;;;4674785;30;20046;-80
2021/07/29 06:09:35;;;;;;;10.13;2.88;;;;;;;;;;4677057;30;20045;-80
2021/07/29 06:12:01;;;;;;;9.10;2.42;;;;;;;;;;4674680;30;20038;-80
2021/07/29 06:14:26;;;;;;;9.82;2.70;;;;;;;;;;4665127;30;20104;-80
2021/07/29 06:16:52;;;;;;;10.32;2.95;;;;;;;;;;4692550;30;20060;-80
2021/07/29 06:21:42;;;;;;;12.70;2.53;;;;;;;;;;4690628;30;20435;-79
2021/07/29 06:24:08;;;;;;;10.40;2.80;;;;;;;;;;4660749;30;20081;-79
2021/07/29 06:26:33;;;;;;;12.52;2.90;;;;;;;;;;4684013;30;20495;-80
2021/07/29 06:28:59;;;;;;;10.57;2.67;;;;;;;;;;4671243;30;20068;-80
2021/07/29 06:31:25;;;;;;;11.48;3.30;;;;;;;;;;4690634;30;20061;-79
2021/07/29 06:33:50;;;;;;;6.35;2.53;;;;;;;;;;4670642;30;20042;-79
2021/07/29 06:36:16;;;;;;;9.45;2.47;;;;;;;;;;4666249;30;20875;-80
2021/07/29 06:38:41;;;;;;;9.82;2.47;;;;;;;;;;4672816;30;20487;-80
2021/07/29 06:41:07;;;;;;;11.00;2.45;;;;;;;;;;4691241;30;20057;-80
2021/07/29 06:43:33;;;;;;;11.00;2.47;;;;;;;;;;4663577;30;20049;-80
2021/07/29 06:46:06;;;;;;;12.02;2.70;;;;;;;;;;4670508;30;20044;-80
2021/07/29 06:48:32;;;;;;;;;;;;;;;;;;4687302;30;20099;-80
2021/07/29 06:51:04;;;;;;;9.90;2.58;;;;;;;;;;4690605;30;19931;-80
2021/07/29 06:53:30;;;;;;;8.73;2.47;;;;;;;;;;4685498;30;20735;-81
2021/07/29 06:55:59;;;;;;;6.50;2.17;;;;;;;;;;4691453;30;20050;-81
2021/07/29 06:58:25;;;;;;;13.35;3.00;;;;;;;;;;4673109;30;20044;-80
2021/07/29 07:00:51;;;;;;;14.23;2.70;;;;;;;;;;4690200;30;20045;-81
2021/07/29 07:03:16;;;;;;;13.35;2.50;;;;;;;;;;4672911;30;20124;-81
2021/07/29 07:05:45;;;;;;;7.25;2.95;;;;;;;;;;4672857;30;20601;-80
2021/07/29 07:08:11;;;;;;;13.45;3.10;;;;;;;;;;4667470;30;20072;-80
2021/07/29 07:10:37;;;;;;;9.13;2.88;;;;;;;;;;4673097;30;20081;-81
2021/07/29 07:13:02;;;;;;;13.27;2.92;;;;;;;;;;4676161;30;20044;-80
2021/07/29 07:15:28;;;;;;;12.70;3.20;;;;;;;;;;4667535;30;20042;-80
2021/07/29 07:17:56;;;;;;;10.23;2.92;;;;;;;;;;4676408;30;20050;-81
2021/07/29 07:20:24;;;;;;;10.15;3.45;;;;;;;;;;4673087;30;20361;-81
2021/07/29 07:22:50;;;;;;;10.48;3.35;;;;;;;;;;4675114;30;20438;-80
2021/07/29 07:25:15;;;;;;;11.63;3.03;;;;;;;;;;4665922;30;20042;-81
2021/07/29 07:27:41;;;;;;;12.60;3.22;;;;;;;;;;4672811;30;21026;-80
2021/07/29 07:30:06;;;;;;;11.05;3.47;;;;;;;;;;4674613;30;20158;-80
2021/07/29 07:32:32;;;;;;;11.10;3.50;;;;;;;;;;4692807;30;20046;-81
2021/07/29 07:34:57;;;;;;;10.18;3.72;;;;;;;;;;4689460;30;20037;-81
2021/07/29 07:37:23;;;;;;;11.00;3.65;;;;;;;;;;4674100;30;20096;-81
2021/07/29 07:39:48;;;;;;;11.88;3.45;;;;;;;;;;4672554;30;20053;-80
2021/07/29 07:42:14;;;;;;;11.18;3.55;;;;;;;;;;4694755;30;20443;-81
2021/07/29 07:44:40;;;;;;;10.70;3.92;;;;;;;;;;4689521;30;20046;-81
2021/07/29 07:47:05;;;;;;;10.98;3.80;;;;;;;;;;4673162;30;20050;-80
2021/07/29 07:49:30;;;;;;;13.65;3.78;;;;;;;;;;4672466;30;20042;-80
2021/07/29 07:51:56;;;;;;;9.98;3.80;;;;;;;;;;4668611;30;20149;-80
2021/07/29 07:54:21;;;;;;;11.15;3.70;;;;;;;;;;4674620;30;20044;-80
2021/07/29 07:56:47;;;;;;;11.68;3.50;;;;;;;;;;4668803;30;20056;-81
2021/07/29 07:59:12;;;;;;;9.52;3.20;;;;;;;;;;4675513;30;20041;-80
2021/07/29 08:01:41;;;;;;;9.52;3.58;;;;;;;;;;4688367;30;20104;-81
2021/07/29 08:04:07;;;;;;;11.90;3.42;;;;;;;;;;4664425;30;20037;-81
2021/07/29 08:06:32;;;;;;;10.57;3.78;;;;;;;;;;4675076;30;20094;-81
2021/07/29 08:08:58;;;;;;;8.85;3.53;;;;;;;;;;4663946;30;20049;-80
2021/07/29 08:11:23;;;;;;;8.75;3.20;;;;;;;;;;4668796;30;20057;-79
2021/07/29 08:13:48;;;;;;;7.20;2.75;;;;;;;;;;4673044;30;20505;-80
2021/07/29 08:16:14;;;;;;;11.15;3.30;;;;;;;;;;4664965;30;20041;-81
2021/07/29 08:18:39;;;;;;;8.75;2.63;;;;;;;;;;4686950;30;20046;-81
2021/07/29 08:21:14;;;;;;;10.55;2.85;;;;;;;;;;4673900;30;20496;-80
2021/07/29 08:23:40;;;;;;;8.65;2.65;;;;;;;;;;4657163;30;20041;-80
2021/07/29 08:26:07;;;;;;;11.23;3.15;;;;;;;;;;4664592;30;20551;-80
2021/07/29 08:28:33;;;;;;;9.43;2.88;;;;;;;;;;4691841;30;20492;-80
2021/07/29 08:30:58;;;;;;;8.25;3.15;;;;;;;;;;4664072;30;20084;-80
2021/07/29 08:33:24;;;;;;;8.00;3.15;;;;;;;;;;4688794;30;20120;-80
2021/07/29 08:35:49;;;;;;;10.00;3.00;;;;;;;;;;4667975;30;20050;-80
2021/07/29 08:38:14;;;;;;;9.05;3.20;;;;;;;;;;4666385;30;20041;-80
2021/07/29 08:40:40;;;;;;;8.57;2.78;;;;;;;;;;4665473;30;20621;-80
2021/07/29 08:43:07;;;;;;;7.45;2.97;;;;;;;;;;4666697;30;20053;-80
2021/07/29 08:45:43;;;;;;;7.45;2.75;;;;;;;;;;4668001;30;20037;-81
2021/07/29 08:48:10;;;;;;;9.18;2.92;;;;;;;;;;4674654;30;20049;-80
2021/07/29 08:50:36;;;;;;;8.95;2.53;;;;;;;;;;4666165;30;20714;-81
2021/07/29 08:53:01;;;;;;;9.90;2.95;;;;;;;;;;4664447;30;20423;-80
2021/07/29 08:55:27;;;;;;;7.35;3.05;;;;;;;;;;4670788;30;20041;-80
2021/07/29 08:57:52;;;;;;;11.90;2.80;;;;;;;;;;4670395;30;20041;-80
2021/07/29 09:00:18;;;;;;;8.18;2.60;;;;;;;;;;4685374;30;20500;-80
2021/07/29 09:02:44;;;;;;;18.67;3.20;;;;;;;;;;4661396;30;20809;-80
2021/07/29 09:05:21;;;;;;;10.57;2.45;;;;;;;;;;4665655;30;20045;-79
2021/07/29 09:08:08;;;;;;;7.32;2.78;;;;;;;;;;4680624;30;20144;-80
2021/07/29 09:10:39;;;;;;;9.13;2.80;;;;;;;;;;4670706;30;20392;-80
2021/07/29 09:13:18;;;;;;;9.55;2.70;;;;;;;;;;4687229;30;20124;-80
2021/07/29 09:15:45;;;;;;;7.85;2.85;;;;;;;;;;4669812;30;20048;-80
2021/07/29 09:18:17;;;;;;;12.57;2.95;;;;;;;;;;4684545;30;20041;-80
2021/07/29 09:20:43;;;;;;;8.60;2.70;;;;;;;;;;4672493;30;20578;-80
2021/07/29 09:23:19;;;;;;;9.95;3.40;;;;;;;;;;4676523;30;20049;-80
2021/07/29 09:25:57;;;;;;;8.50;3.20;;;;;;;;;;4686818;30;20045;-80
2021/07/29 09:28:37;;;;;;;12.73;3.53;;;;;;;;;;4664013;30;20045;-80
2021/07/29 09:31:22;;;;;;;7.63;3.20;;;;;;;;;;4685087;30;20056;-80
2021/07/29 09:34:02;;;;;;;10.60;3.58;;;;;;;;;;4676229;30;20499;-80
2021/07/29 09:36:31;;;;;;;12.35;3.53;;;;;;;;;;4688634;30;20121;-81
2021/07/29 09:39:19;;;;;;;10.52;3.25;;;;;;;;;;4675220;30;20910;-80
2021/07/29 09:41:47;;;;;;;8.55;3.30;;;;;;;;;;4692407;30;20046;-80
2021/07/29 09:44:14;;;;;;;9.40;3.13;;;;;;;;;;4664613;30;20045;-80
2021/07/29 09:46:39;;;;;;;11.90;3.60;;;;;;;;;;4685032;30;20050;-80
2021/07/29 09:49:06;;;;;;;8.73;2.28;;;;;;;;;;4665628;30;20034;-80
2021/07/29 09:51:32;;;;;;;7.00;2.65;;;;;;;;;;4666243;30;20149;-80
2021/07/29 09:53:58;;;;;;;7.40;2.72;;;;;;;;;;4670677;30;20042;-80
2021/07/29 09:56:23;;;;;;;9.60;2.80;;;;;;;;;;4658590;30;20140;-80
2021/07/29 09:58:49;;;;;;;12.10;3.10;;;;;;;;;;4665570;30;20159;-81
2021/07/29 10:01:18;;;;;;;9.90;2.97;;;;;;;;;;4696564;30;20056;-80
2021/07/29 10:03:48;;;;;;;7.57;2.95;;;;;;;;;;4688902;30;20034;-80
2021/07/29 10:06:16;;;;;;;7.90;2.72;;;;;;;;;;4680415;30;20454;-80
2021/07/29 10:08:49;;;;;;;8.85;3.10;;;;;;;;;;4677180;30;20116;-79
2021/07/29 10:11:16;;;;;;;;;;;;;;;;;;4688686;30;20073;-80
2021/07/29 10:13:43;;;;;;;9.10;3.10;;;;;;;;;;4687206;30;19928;-80
2021/07/29 10:16:09;;;;;;;8.25;2.72;;;;;;;;;;4690261;30;20041;-81
2021/07/29 10:18:50;;;;;;;8.15;2.50;;;;;;;;;;4689905;30;20038;-80
2021/07/29 10:21:35;;;;;;;8.48;2.65;;;;;;;;;;4693092;30;20034;-81
2021/07/29 10:24:01;;;;;;;9.85;3.00;;;;;;;;;;4674411;30;20076;-80
2021/07/29 10:26:33;;;;;;;11.45;3.75;;;;;;;;;;4690319;30;20048;-80
2021/07/29 10:29:24;;;;;;;7.30;3.13;;;;;;;;;;4672211;30;20152;-80
2021/07/29 10:32:02;;;;;;;12.63;3.50;;;;;;;;;;4671997;30;20104;-80
2021/07/29 10:34:32;;;;;;;12.18;3.22;;;;;;;;;;4673098;30;20109;-80
2021/07/29 10:37:00;;;;;;;11.15;4.13;;;;;;;;;;4686030;30;20052;-81
2021/07/29 10:39:26;;;;;;;10.07;3.40;;;;;;;;;;4672426;30;20601;-80
2021/07/29 10:41:56;;;;;;;9.50;3.95;;;;;;;;;;4670874;30;20112;-81
2021/07/29 10:44:31;;;;;;;7.82;3.35;;;;;;;;;;4682176;30;20030;-80
2021/07/29 10:47:01;;;;;;;10.95;3.85;;;;;;;;;;4680072;30;20087;-80
2021/07/29 10:49:45;;;;;;;10.50;3.30;;;;;;;;;;4690234;30;20072;-80
2021/07/29 10:52:11;;;;;;;14.70;3.53;;;;;;;;;;4673369;30;20058;-80
2021/07/29 10:54:39;;;;;;;9.40;3.50;;;;;;;;;;4689671;30;20064;-80
2021/07/29 10:57:06;;;;;;;6.78;2.92;;;;;;;;;;4668492;30;20045;-80
2021/07/29 10:59:33;;;;;;;10.93;2.67;;;;;;;;;;4688055;30;20467;-80
2021/07/29 11:02:05;;;;;;;7.18;2.47;;;;;;;;;;4667032;30;20045;-81
2021/07/29 11:04:32;;;;;;;11.25;2.80;;;;;;;;;;4666568;30;20077;-80
2021/07/29 11:07:05;;;;;;;13.07;3.55;;;;;;;;;;4662751;30;20049;-80
2021/07/29 11:09:32;;;;;;;8.35;2.95;;;;;;;;;;4672054;30;20061;-80
2021/07/29 11:11:59;;;;;;;6.32;2.90;;;;;;;;;;4676927;30;20519;-80
2021/07/29 11:14:31;;;;;;;7.85;2.80;;;;;;;;;;4672240;30;20041;-80
2021/07/29 11:16:59;;;;;;;9.77;3.85;;;;;;;;;;4687452;30;20038;-80
2021/07/29 11:19:25;;;;;;;8.48;2.70;;;;;;;;;;4663419;30;20503;-80
2021/07/29 11:22:04;;;;;;;7.95;2.80;;;;;;;;;;4691915;30;20119;-80
2021/07/29 11:24:31;;;;;;;8.45;2.97;;;;;;;;;;4673959;30;20487;-80
2021/07/29 11:26:57;;;;;;;8.77;2.33;;;;;;;;;;4673741;30;20045;-81
2021/07/29 11:29:22;;;;;;;8.02;2.92;;;;;;;;;;4665282;30;20046;-81
2021/07/29 11:31:55;;;;;;;10.23;3.28;;;;;;;;;;4693119;30;20076;-80
2021/07/29 11:34:28;;;;;;;;;;;;;;;;;;4694412;30;20040;-81
2021/07/29 11:36:54;;;;;;;10.07;3.33;;;;;;;;;;4688486;30;19927;-80
2021/07/29 11:39:20;;;;;;;10.13;3.33;;;;;;;;;;4686513;30;20075;-80
2021/07/29 11:41:56;;;;;;;8.55;3.80;;;;;;;;;;4686763;30;20038;-81
2021/07/29 11:44:41;;;;;;;8.00;3.20;;;;;;;;;;4670293;30;20037;-80
2021/07/29 11:47:07;;;;;;;9.35;3.00;;;;;;;;;;4672138;30;20053;-80
2021/07/29 11:49:50;;;;;;;9.82;3.40;;;;;;;;;;4674332;30;20860;-80
2021/07/29 11:52:17;;;;;;;9.90;3.40;;;;;;;;;;4662609;30;20046;-80
2021/07/29 11:54:42;;;;;;;9.45;3.08;;;;;;;;;;4677753;30;20057;-80
2021/07/29 11:57:09;;;;;;;9.18;3.33;;;;;;;;;;4672470;30;20805;-80
2021/07/29 11:59:36;;;;;;;7.40;2.92;;;;;;;;;;4675782;30;20033;-81
2021/07/29 12:02:03;;;;;;;9.07;3.00;;;;;;;;;;4674057;30;20053;-80
2021/07/29 12:04:30;;;;;;;11.35;3.58;;;;;;;;;;4670139;30;20084;-79
2021/07/29 12:06:56;;;;;;;12.90;3.30;;;;;;;;;;4671114;30;20042;-80
2021/07/29 12:09:23;;;;;;;11.10;3.35;;;;;;;;;;4667408;30;20457;-80
2021/07/29 12:11:51;;;;;;;9.40;3.22;;;;;;;;;;4670087;30;20046;-80
2021/07/29 12:14:17;;;;;;;9.10;3.53;;;;;;;;;;4685427;30;20045;-80
2021/07/29 12:16:47;;;;;;;9.20;3.22;;;;;;;;;;4662922;30;21918;-81
2021/07/29 12:19:13;;;;;;;9.65;3.42;;;;;;;;;;4660040;30;20075;-80
2021/07/29 12:21:38;;;;;;;10.98;3.50;;;;;;;;;;4668769;30;20533;-80
2021/07/29 12:24:04;;;;;;;9.73;3.55;;;;;;;;;;4688260;30;20120;-80
2021/07/29 12:26:29;;;;;;;7.85;3.53;;;;;;;;;;4671521;30;20054;-80
2021/07/29 12:28:55;;;;;;;12.40;3.40;;;;;;;;;;4678774;30;20060;-81
2021/07/29 12:31:26;;;;;;;7.85;3.33;;;;;;;;;;4670955;30;20061;-81
2021/07/29 12:33:54;;;;;;;10.10;3.33;;;;;;;;;;4663040;30;20054;-80
2021/07/29 12:36:20;;;;;;;11.35;3.20;;;;;;;;;;4673793;30;20449;-81
2021/07/29 12:38:57;;;;;;;9.00;3.42;;;;;;;;;;4680727;30;20046;-81
2021/07/29 12:41:34;;;;;;;11.35;3.40;;;;;;;;;;4665688;30;20042;-81
2021/07/29 12:44:15;;;;;;;10.40;3.30;;;;;;;;;;4672328;30;20088;-81
2021/07/29 12:46:42;;;;;;;12.45;3.63;;;;;;;;;;4673210;30;20548;-81
2021/07/29 12:49:07;;;;;;;9.50;3.30;;;;;;;;;;4668274;30;20038;-81
2021/07/29 12:51:42;;;;;;;9.45;3.75;;;;;;;;;;4677560;30;20042;-82
2021/07/29 12:54:10;;;;;;;8.38;3.33;;;;;;;;;;4669013;30;20042;-81
2021/07/29 12:56:36;;;;;;;10.02;3.20;;;;;;;;;;4673645;30;20522;-81
2021/07/29 12:59:02;;;;;;;10.98;3.95;;;;;;;;;;4677441;30;20057;-81
2021/07/29 13:01:27;;;;;;;8.82;3.40;;;;;;;;;;4694815;30;20053;-81
2021/07/29 13:03:53;;;;;;;8.93;2.90;;;;;;;;;;4697103;30;20041;-81
2021/07/29 13:06:20;;;;;;;7.90;3.38;;;;;;;;;;4673199;30;20104;-81
2021/07/29 13:08:45;;;;;;;8.25;3.42;;;;;;;;;;4693224;30;20053;-81
2021/07/29 13:11:13;;;;;;;10.27;3.10;;;;;;;;;;4685012;30;20049;-80
2021/07/29 13:13:39;;;;;;;10.23;3.35;;;;;;;;;;4694899;30;20099;-80
2021/07/29 13:16:05;;;;;;;9.57;3.60;;;;;;;;;;4674313;30;20049;-80
2021/07/29 13:18:31;;;;;;;8.63;3.30;;;;;;;;;;4694566;30;21395;-81
2021/07/29 13:20:57;;;;;;;9.32;3.70;;;;;;;;;;4695155;30;20077;-81
2021/07/29 13:23:26;;;;;;;9.90;3.10;;;;;;;;;;4700348;30;20076;-81
2021/07/29 13:25:51;;;;;;;8.88;3.70;;;;;;;;;;4674212;30;20092;-82
2021/07/29 13:28:18;;;;;;;10.35;3.55;;;;;;;;;;4690055;30;20484;-81
2021/07/29 13:30:44;;;;;;;7.53;3.20;;;;;;;;;;4674985;30;20572;-81
2021/07/29 13:33:10;;;;;;;11.10;3.58;;;;;;;;;;4665555;30;20199;-81
2021/07/29 13:35:36;;;;;;;11.18;3.95;;;;;;;;;;4678006;30;20037;-81
2021/07/29 13:38:02;;;;;;;8.30;3.50;;;;;;;;;;4665940;30;20045;-80
2021/07/29 13:40:29;;;;;;;7.65;3.10;;;;;;;;;;4691175;30;20068;-81
2021/07/29 13:42:55;;;;;;;10.85;3.22;;;;;;;;;;4668567;30;20038;-81
2021/07/29 13:45:21;;;;;;;11.73;3.00;;;;;;;;;;4685387;30;20153;-80
2021/07/29 13:47:47;;;;;;;10.05;3.40;;;;;;;;;;4685726;30;20719;-83
2021/07/29 13:50:14;;;;;;;10.75;3.20;;;;;;;;;;4686891;30;20942;-83
2021/07/29 13:52:40;;;;;;;6.82;2.80;;;;;;;;;;4695054;30;20459;-83
2021/07/29 13:55:06;;;;;;;9.70;3.13;;;;;;;;;;4671042;30;20127;-83
2021/07/29 13:57:32;;;;;;;8.43;3.20;;;;;;;;;;4681747;30;20605;-84
2021/07/29 13:59:57;;;;;;;8.45;3.10;;;;;;;;;;4684315;30;20038;-84
2021/07/29 14:02:23;;;;;;;8.13;3.20;;;;;;;;;;4681145;30;20037;-83
2021/07/29 14:04:48;;;;;;;9.82;3.38;;;;;;;;;;4672780;30;20051;-84
2021/07/29 14:07:14;;;;;;;9.43;3.30;;;;;;;;;;4670561;30;20041;-83
2021/07/29 14:09:39;;;;;;;9.82;3.53;;;;;;;;;;4696743;30;20033;-83
2021/07/29 14:12:06;;;;;;;8.27;3.13;;;;;;;;;;4696384;30;20045;-83
2021/07/29 14:14:32;;;;;;;9.23;3.53;;;;;;;;;;4659022;30;20067;-83
2021/07/29 14:16:57;;;;;;;8.57;3.58;;;;;;;;;;4679880;30;20124;-83
2021/07/29 14:19:35;;;;;;;9.55;2.90;;;;;;;;;;4688749;30;20065;-82
2021/07/29 14:24:38;;;;;;;9.93;2.97;;;;;;;;;;4696846;30;20103;-82
2021/07/29 14:27:04;;;;;;;9.85;2.90;;;;;;;;;;4673938;30;20065;-82
2021/07/29 14:29:30;;;;;;;8.48;3.05;;;;;;;;;;4676078;30;20037;-82
2021/07/29 14:31:56;;;;;;;9.90;3.03;;;;;;;;;;4697051;30;20057;-82
2021/07/29 14:34:21;;;;;;;9.15;2.97;;;;;;;;;;4679994;30;20065;-82
2021/07/29 14:36:47;;;;;;;7.22;2.50;;;;;;;;;;4673021;30;20053;-82
2021/07/29 14:39:12;;;;;;;9.55;3.22;;;;;;;;;;4670441;30;20049;-82
2021/07/29 14:41:38;;;;;;;8.55;2.63;;;;;;;;;;4680241;30;20029;-82
2021/07/29 14:44:03;;;;;;;9.95;2.80;;;;;;;;;;4669946;30;20083;-82
2021/07/29 14:49:13;;;;;;;6.20;2.47;;;;;;;;;;4691800;30;20550;-81